Time;durP1;ratioP1;P1;durP2;ratioP2;P2;SDS_P1;SDS_P2;PMS_P1;PMS_P2;Temp;Humidity;BMP_temperature;BMP_pressure;BME280_temperature;BME280_humidity;BME280_pressure;Samples;Min_cycle;Max_cycle;Signal;HPM_P1;HPM_P2
2024/04/18 00:02:04;;;;;;;2.45;1.90;;;7.70;99.90;;;;;;5473130;26;20005;-82
2024/04/18 00:04:30;;;;;;;3.28;1.92;;;7.60;99.90;;;;;;5479428;26;20372;-83
2024/04/18 00:06:55;;;;;;;3.55;1.95;;;7.60;99.90;;;;;;5452662;26;19999;-82
2024/04/18 00:09:21;;;;;;;2.13;1.50;;;7.60;99.90;;;;;;5467300;26;20002;-81
2024/04/18 00:11:47;;;;;;;2.28;1.70;;;7.60;99.90;;;;;;5465689;26;20010;-82
2024/04/18 00:14:12;;;;;;;3.13;1.70;;;7.60;99.90;;;;;;5453724;26;20002;-82
2024/04/18 00:16:38;;;;;;;3.33;1.80;;;7.60;99.90;;;;;;5482894;26;19998;-81
2024/04/18 00:19:04;;;;;;;5.95;1.95;;;7.60;99.90;;;;;;5477707;26;20038;-82
2024/04/18 00:21:29;;;;;;;2.92;1.70;;;7.60;99.90;;;;;;5463092;26;20002;-82
2024/04/18 00:23:55;;;;;;;3.60;1.70;;;7.50;99.90;;;;;;5454596;26;20014;-82
2024/04/18 00:26:21;;;;;;;3.97;1.40;;;7.50;99.90;;;;;;5471068;26;20322;-81
2024/04/18 00:28:46;;;;;;;3.92;1.55;;;7.50;99.90;;;;;;5468829;26;20095;-83
2024/04/18 00:31:12;;;;;;;4.65;1.70;;;7.50;99.90;;;;;;5457789;26;19998;-80
2024/04/18 00:33:37;;;;;;;3.50;1.80;;;7.50;99.90;;;;;;5482279;26;20358;-83
2024/04/18 00:36:06;;;;;;;2.58;1.58;;;7.50;99.90;;;;;;5456740;26;20016;-81
2024/04/18 00:38:32;;;;;;;3.28;1.50;;;7.50;99.90;;;;;;5480584;26;20043;-81
2024/04/18 00:40:58;;;;;;;2.60;1.02;;;7.50;99.90;;;;;;5481058;26;20447;-81
2024/04/18 00:43:23;;;;;;;3.42;1.45;;;7.50;99.90;;;;;;5466487;26;20010;-83
2024/04/18 00:45:49;;;;;;;6.00;2.03;;;7.40;99.90;;;;;;5482548;26;20013;-83
2024/04/18 00:48:15;;;;;;;2.67;1.50;;;7.40;99.90;;;;;;5456255;26;20063;-82
2024/04/18 00:50:41;;;;;;;3.80;1.42;;;7.40;99.90;;;;;;5475258;26;20001;-81
2024/04/18 00:53:08;;;;;;;1.60;1.30;;;7.50;99.90;;;;;;5458055;26;20340;-82
2024/04/18 00:55:36;;;;;;;4.75;1.55;;;7.50;99.90;;;;;;5471907;26;20049;-83
2024/04/18 00:58:02;;;;;;;3.30;1.52;;;7.50;99.90;;;;;;5466386;26;20497;-83
2024/04/18 01:00:28;;;;;;;2.60;1.13;;;7.50;99.90;;;;;;5457330;26;20014;-81
2024/04/18 01:02:53;;;;;;;2.80;1.30;;;7.50;99.90;;;;;;5481797;26;20407;-82
2024/04/18 01:05:20;;;;;;;3.03;1.33;;;7.50;99.90;;;;;;5457223;26;19998;-82
2024/04/18 01:07:47;;;;;;;4.13;1.60;;;7.50;99.90;;;;;;5481514;26;20029;-81
2024/04/18 01:10:12;;;;;;;3.47;1.70;;;7.50;99.90;;;;;;5482782;26;20013;-81
2024/04/18 01:12:38;;;;;;;4.63;1.40;;;7.50;99.90;;;;;;5455968;26;20466;-81
2024/04/18 01:15:04;;;;;;;4.38;1.60;;;7.50;99.90;;;;;;5460575;26;20064;-81
2024/04/18 01:17:29;;;;;;;5.88;1.63;;;7.40;99.90;;;;;;5450604;26;20013;-84
2024/04/18 01:19:55;;;;;;;3.15;1.42;;;7.40;99.90;;;;;;5464253;26;19998;-82
2024/04/18 01:22:21;;;;;;;3.08;1.48;;;7.40;99.90;;;;;;5470969;26;20010;-83
2024/04/18 01:24:47;;;;;;;3.33;1.50;;;7.40;99.90;;;;;;5460143;26;19994;-83
2024/04/18 01:27:12;;;;;;;2.92;1.40;;;7.40;99.90;;;;;;5480531;26;20006;-82
2024/04/18 01:29:38;;;;;;;2.95;1.40;;;7.40;99.90;;;;;;5456643;26;20073;-82
2024/04/18 01:32:04;;;;;;;4.57;1.52;;;7.40;99.90;;;;;;5481506;26;20436;-83
2024/04/18 01:34:29;;;;;;;7.25;1.58;;;7.30;99.90;;;;;;5454612;26;19994;-83
2024/04/18 01:36:55;;;;;;;3.72;1.38;;;7.30;99.90;;;;;;5481329;26;20086;-82
2024/04/18 01:39:20;;;;;;;3.25;1.50;;;7.30;99.90;;;;;;5456290;26;20064;-81
2024/04/18 01:41:46;;;;;;;2.15;1.30;;;7.20;99.90;;;;;;5467676;26;20015;-82
2024/04/18 01:44:12;;;;;;;7.57;1.40;;;7.20;99.90;;;;;;5451073;26;20075;-82
2024/04/18 01:46:37;;;;;;;4.40;1.50;;;7.20;99.90;;;;;;5478024;26;19998;-82
2024/04/18 01:49:03;;;;;;;3.35;1.48;;;7.10;99.90;;;;;;5460194;26;19995;-82
2024/04/18 01:51:29;;;;;;;2.75;1.30;;;7.10;99.90;;;;;;5443363;26;20581;-82
2024/04/18 01:53:54;;;;;;;2.40;1.20;;;7.00;99.90;;;;;;5480276;26;20363;-82
2024/04/18 01:56:20;;;;;;;4.97;1.25;;;7.00;99.90;;;;;;5460599;26;20002;-83
2024/04/18 01:58:46;;;;;;;3.60;1.25;;;6.90;99.90;;;;;;5476223;26;19994;-81
2024/04/18 02:01:11;;;;;;;4.45;1.40;;;6.90;99.90;;;;;;5481189;26;20002;-80
2024/04/18 02:03:37;;;;;;;2.97;1.27;;;6.80;99.90;;;;;;5477959;26;20009;-82
2024/04/18 02:06:03;;;;;;;4.30;1.50;;;6.80;99.90;;;;;;5458760;26;19990;-83
2024/04/18 02:08:28;;;;;;;5.80;1.25;;;6.80;99.90;;;;;;5480862;26;19998;-84
2024/04/18 02:10:54;;;;;;;4.20;1.60;;;6.80;99.90;;;;;;5455658;26;20082;-84
2024/04/18 02:13:20;;;;;;;4.43;1.50;;;6.70;99.90;;;;;;5459875;26;19994;-84
2024/04/18 02:15:46;;;;;;;5.28;1.55;;;6.70;99.90;;;;;;5470835;26;20028;-84
2024/04/18 02:18:11;;;;;;;2.83;1.30;;;6.70;99.90;;;;;;5461748;26;20340;-80
2024/04/18 02:20:37;;;;;;;3.45;1.48;;;6.60;99.90;;;;;;5478947;26;19998;-83
2024/04/18 02:23:03;;;;;;;2.42;1.17;;;6.60;99.90;;;;;;5457567;26;19998;-82
2024/04/18 02:25:28;;;;;;;2.50;1.45;;;6.60;99.90;;;;;;5481430;26;20042;-81
2024/04/18 02:27:54;;;;;;;3.10;1.30;;;6.50;99.90;;;;;;5470804;26;20567;-83
2024/04/18 02:30:19;;;;;;;3.08;1.50;;;6.60;99.90;;;;;;5466463;26;19998;-83
2024/04/18 02:32:45;;;;;;;4.60;1.75;;;6.50;99.90;;;;;;5454536;26;19998;-82
2024/04/18 02:35:11;;;;;;;3.40;1.30;;;6.50;99.90;;;;;;5464436;26;20013;-81
2024/04/18 02:37:36;;;;;;;4.25;1.60;;;6.50;99.90;;;;;;5468024;26;20006;-82
2024/04/18 02:40:02;;;;;;;6.68;1.60;;;6.40;99.90;;;;;;5457895;26;20074;-82
2024/04/18 02:42:28;;;;;;;6.25;1.27;;;6.40;99.90;;;;;;5480275;26;20009;-82
2024/04/18 02:44:53;;;;;;;7.70;1.85;;;6.40;99.90;;;;;;5443629;26;20107;-82
2024/04/18 02:47:19;;;;;;;4.28;1.33;;;6.40;99.90;;;;;;5465001;26;20077;-82
2024/04/18 02:49:45;;;;;;;3.65;1.60;;;6.40;99.90;;;;;;5453528;26;19998;-81
2024/04/18 02:52:10;;;;;;;4.07;1.70;;;6.30;99.90;;;;;;5454992;26;20609;-81
2024/04/18 02:54:36;;;;;;;4.28;1.80;;;6.30;99.90;;;;;;5478957;26;20009;-82
2024/04/18 02:57:02;;;;;;;4.13;1.70;;;6.30;99.90;;;;;;5474524;26;20046;-82
2024/04/18 02:59:27;;;;;;;4.10;1.83;;;6.30;99.90;;;;;;5461304;26;20006;-81
2024/04/18 03:01:53;;;;;;;5.55;1.60;;;6.20;99.90;;;;;;5455098;26;19999;-82
2024/04/18 03:04:19;;;;;;;5.63;1.95;;;6.20;99.90;;;;;;5480246;26;20022;-82
2024/04/18 03:06:48;;;;;;;4.07;1.98;;;6.20;99.90;;;;;;5456263;26;19999;-81
2024/04/18 03:09:15;;;;;;;5.40;1.92;;;6.20;99.90;;;;;;5469031;26;20003;-82
2024/04/18 03:11:40;;;;;;;3.67;1.50;;;6.20;99.90;;;;;;5466316;26;20002;-81
2024/04/18 03:14:06;;;;;;;4.97;1.98;;;6.10;99.90;;;;;;5472950;26;20002;-82
2024/04/18 03:16:32;;;;;;;3.05;1.50;;;6.10;99.90;;;;;;5462204;26;20438;-81
2024/04/18 03:18:59;;;;;;;5.07;1.50;;;6.10;99.90;;;;;;5475995;26;20350;-81
2024/04/18 03:21:25;;;;;;;5.93;1.60;;;6.10;99.90;;;;;;5458904;26;19999;-81
2024/04/18 03:23:50;;;;;;;2.30;1.73;;;6.10;99.90;;;;;;5453726;26;20018;-82
2024/04/18 03:26:16;;;;;;;3.55;1.90;;;6.10;99.90;;;;;;5469194;26;20009;-81
2024/04/18 03:28:42;;;;;;;3.30;1.52;;;6.00;99.90;;;;;;5464968;26;20013;-81
2024/04/18 03:31:07;;;;;;;6.38;1.73;;;6.00;99.90;;;;;;5454650;26;20006;-81
2024/04/18 03:33:33;;;;;;;4.72;2.00;;;6.00;99.90;;;;;;5459713;26;20449;-81
2024/04/18 03:36:03;;;;;;;5.38;1.75;;;6.00;99.90;;;;;;5469246;26;20368;-81
2024/04/18 03:38:28;;;;;;;3.75;1.67;;;5.90;99.90;;;;;;5459176;26;19998;-81
2024/04/18 03:40:56;;;;;;;3.55;1.75;;;5.90;99.90;;;;;;5454107;26;19999;-81
2024/04/18 03:43:21;;;;;;;5.20;1.67;;;5.90;99.90;;;;;;5479505;26;20009;-81
2024/04/18 03:45:59;;;;;;;4.45;1.73;;;5.90;99.90;;;;;;5457079;26;19998;-81
2024/04/18 03:48:24;;;;;;;3.47;1.80;;;5.80;99.90;;;;;;5455147;26;20336;-79
2024/04/18 03:50:50;;;;;;;7.72;1.70;;;5.80;99.90;;;;;;5476197;26;20233;-80
2024/04/18 03:53:16;;;;;;;2.88;1.48;;;5.80;99.90;;;;;;5457385;26;20014;-81
2024/04/18 03:55:41;;;;;;;3.92;1.70;;;5.80;99.90;;;;;;5481649;26;20392;-81
2024/04/18 03:58:07;;;;;;;4.85;1.65;;;5.70;99.90;;;;;;5482875;26;20010;-81
2024/04/18 04:00:33;;;;;;;4.20;1.90;;;5.70;99.90;;;;;;5475912;26;20017;-81
2024/04/18 04:02:58;;;;;;;7.63;1.63;;;5.70;99.90;;;;;;5464863;26;20080;-80
2024/04/18 04:05:24;;;;;;;3.85;1.80;;;5.70;99.90;;;;;;5477501;26;20002;-79
2024/04/18 04:07:51;;;;;;;3.95;1.75;;;5.70;99.90;;;;;;5460924;26;20002;-81
2024/04/18 04:10:17;;;;;;;4.47;1.95;;;5.60;99.90;;;;;;5457999;26;20013;-81
2024/04/18 04:12:42;;;;;;;6.72;1.85;;;5.60;99.90;;;;;;5482429;26;20491;-81
2024/04/18 04:15:08;;;;;;;4.70;1.88;;;5.60;99.90;;;;;;5460863;26;20358;-81
2024/04/18 04:17:36;;;;;;;3.40;2.03;;;5.60;99.90;;;;;;5471777;26;20031;-81
2024/04/18 04:20:02;;;;;;;6.53;1.70;;;5.60;99.90;;;;;;5466728;26;20425;-82
2024/04/18 04:22:28;;;;;;;5.00;1.75;;;5.60;99.90;;;;;;5457603;26;20013;-81
2024/04/18 04:24:53;;;;;;;3.70;1.77;;;5.50;99.90;;;;;;5467222;26;20404;-81
2024/04/18 04:27:19;;;;;;;9.80;2.33;;;5.50;99.90;;;;;;5474029;26;20043;-82
2024/04/18 04:29:45;;;;;;;5.05;1.92;;;5.40;99.90;;;;;;5482764;26;19998;-81
2024/04/18 04:32:20;;;;;;;6.57;2.05;;;5.40;99.90;;;;;;5483387;26;20002;-81
2024/04/18 04:34:45;;;;;;;6.90;2.13;;;5.40;99.90;;;;;;5471183;26;20014;-81
2024/04/18 04:37:11;;;;;;;3.78;1.90;;;5.40;99.90;;;;;;5468921;26;19998;-81
2024/04/18 04:39:36;;;;;;;5.30;2.17;;;5.40;99.90;;;;;;5456660;26;19998;-81
2024/04/18 04:42:02;;;;;;;4.03;2.30;;;5.40;99.90;;;;;;5465628;26;19998;-82
2024/04/18 04:44:28;;;;;;;7.97;2.50;;;5.40;99.90;;;;;;5478703;26;20002;-82
2024/04/18 04:46:53;;;;;;;4.70;2.58;;;5.30;99.90;;;;;;5459818;26;19998;-83
2024/04/18 04:49:19;;;;;;;5.18;2.20;;;5.40;99.90;;;;;;5457229;26;20026;-84
2024/04/18 04:51:45;;;;;;;6.68;2.42;;;5.30;99.90;;;;;;5456933;26;20052;-83
2024/04/18 04:54:10;;;;;;;5.43;2.58;;;5.30;99.90;;;;;;5466031;26;20069;-82
2024/04/18 04:56:36;;;;;;;6.20;2.40;;;5.30;99.90;;;;;;5471664;26;20032;-83
2024/04/18 04:59:02;;;;;;;4.20;2.30;;;5.30;99.90;;;;;;5456311;26;20925;-82
2024/04/18 05:01:27;;;;;;;6.22;2.30;;;5.30;99.90;;;;;;5478085;26;20006;-82
2024/04/18 05:03:53;;;;;;;7.90;2.85;;;5.30;99.90;;;;;;5474766;26;19999;-81
2024/04/18 05:06:19;;;;;;;9.70;2.50;;;5.30;99.90;;;;;;5444514;26;20005;-81
2024/04/18 05:08:45;;;;;;;6.75;2.63;;;5.20;99.90;;;;;;5470283;26;19995;-81
2024/04/18 05:11:11;;;;;;;5.72;2.30;;;5.20;99.90;;;;;;5460419;26;20012;-82
2024/04/18 05:13:36;;;;;;;4.28;2.30;;;5.20;99.90;;;;;;5456288;26;20006;-81
2024/04/18 05:16:02;;;;;;;6.47;2.20;;;5.20;99.90;;;;;;5480185;26;19998;-81
2024/04/18 05:18:28;;;;;;;11.90;2.28;;;5.20;99.90;;;;;;5482036;26;19994;-81
2024/04/18 05:20:53;;;;;;;6.43;2.72;;;5.20;99.90;;;;;;5456115;26;20407;-81
2024/04/18 05:23:19;;;;;;;5.65;2.67;;;5.30;99.90;;;;;;5483699;26;20503;-82
2024/04/18 05:25:44;;;;;;;6.05;2.53;;;5.30;99.90;;;;;;5481740;26;20002;-82
2024/04/18 05:28:12;;;;;;;5.25;2.33;;;5.30;99.90;;;;;;5467191;26;20079;-81
2024/04/18 05:33:25;;;;;;;7.38;2.58;;;5.40;99.90;;;;;;5460249;26;20047;-81
2024/04/18 05:35:51;;;;;;;6.25;2.30;;;5.40;99.90;;;;;;5455995;26;20009;-82
2024/04/18 05:38:17;;;;;;;5.43;2.47;;;5.50;99.90;;;;;;5469119;26;20003;-82
2024/04/18 05:40:42;;;;;;;9.30;2.60;;;5.50;99.90;;;;;;5468630;26;20010;-82
2024/04/18 05:43:08;;;;;;;9.93;2.53;;;5.60;99.90;;;;;;5480982;26;20002;-82
2024/04/18 05:45:33;;;;;;;6.82;2.22;;;5.60;99.90;;;;;;5470045;26;20010;-83
2024/04/18 05:47:59;;;;;;;4.82;2.17;;;5.60;99.90;;;;;;5479648;26;20393;-82
2024/04/18 05:50:26;;;;;;;5.80;2.42;;;5.70;99.90;;;;;;5481368;26;20469;-82
2024/04/18 05:52:51;;;;;;;5.10;2.47;;;5.80;99.90;;;;;;5480938;26;20510;-82
2024/04/18 05:55:17;;;;;;;6.70;2.70;;;5.80;99.90;;;;;;5476485;26;20074;-82
2024/04/18 05:57:42;;;;;;;5.75;2.60;;;5.90;99.90;;;;;;5481171;26;20002;-82
2024/04/18 06:00:11;;;;;;;8.73;2.55;;;6.00;99.90;;;;;;5480289;26;20006;-81
2024/04/18 06:02:37;;;;;;;3.92;2.63;;;6.10;99.90;;;;;;5466827;26;20002;-81
2024/04/18 06:05:03;;;;;;;6.55;2.72;;;6.10;99.90;;;;;;5471822;26;19998;-82
2024/04/18 06:07:29;;;;;;;6.05;2.47;;;6.20;99.90;;;;;;5481208;26;20441;-81
2024/04/18 06:09:55;;;;;;;7.90;3.22;;;6.20;99.90;;;;;;5478286;26;20002;-81
2024/04/18 06:12:21;;;;;;;6.38;2.45;;;6.30;99.90;;;;;;5475160;26;19999;-82
2024/04/18 06:14:47;;;;;;;6.68;2.92;;;6.30;99.90;;;;;;5462462;26;20379;-81
2024/04/18 06:17:13;;;;;;;5.25;2.22;;;6.40;99.90;;;;;;5480218;26;20009;-81
2024/04/18 06:19:38;;;;;;;6.82;2.58;;;6.50;99.90;;;;;;5467232;26;20116;-81
2024/04/18 06:22:04;;;;;;;7.90;2.40;;;6.50;99.90;;;;;;5443793;26;20003;-81
2024/04/18 06:24:31;;;;;;;5.90;2.35;;;6.60;99.90;;;;;;5476393;26;20014;-82
2024/04/18 06:26:59;;;;;;;4.90;2.25;;;6.60;99.90;;;;;;5481118;26;20028;-82
2024/04/18 06:29:26;;;;;;;5.85;2.28;;;6.70;99.90;;;;;;5467843;26;20009;-82
2024/04/18 06:31:52;;;;;;;4.30;1.77;;;6.70;99.90;;;;;;5463381;26;19995;-82
2024/04/18 06:34:17;;;;;;;4.95;2.00;;;6.80;99.90;;;;;;5468753;26;20467;-83
2024/04/18 06:36:43;;;;;;;6.10;2.00;;;6.90;99.90;;;;;;5478273;26;20004;-82
2024/04/18 06:39:09;;;;;;;9.65;2.22;;;6.90;99.90;;;;;;5477558;26;19994;-83
2024/04/18 06:41:36;;;;;;;4.45;1.75;;;7.00;99.90;;;;;;5480498;26;19994;-82
2024/04/18 06:44:02;;;;;;;7.35;2.22;;;7.00;99.90;;;;;;5479858;26;19998;-83
2024/04/18 06:46:27;;;;;;;7.97;2.08;;;7.10;99.90;;;;;;5480538;26;19998;-83
2024/04/18 06:48:53;;;;;;;5.90;2.00;;;7.20;99.90;;;;;;5476545;26;20008;-83
2024/04/18 06:51:19;;;;;;;8.00;2.30;;;7.20;99.90;;;;;;5474694;26;20540;-83
2024/04/18 06:53:44;;;;;;;5.40;1.83;;;7.30;99.90;;;;;;5477858;26;20039;-83
2024/04/18 06:56:10;;;;;;;8.48;1.92;;;7.40;99.90;;;;;;5478358;26;20339;-82
2024/04/18 06:58:36;;;;;;;4.85;1.98;;;7.50;99.90;;;;;;5478363;26;20001;-82
2024/04/18 07:01:02;;;;;;;6.60;1.95;;;7.60;99.90;;;;;;5480344;26;20347;-82
2024/04/18 07:03:27;;;;;;;5.18;1.92;;;7.60;99.90;;;;;;5479556;26;20416;-82
2024/04/18 07:05:53;;;;;;;4.82;2.00;;;7.70;99.90;;;;;;5480355;26;20552;-82
2024/04/18 07:08:19;;;;;;;5.82;2.05;;;7.80;99.90;;;;;;5479246;26;20005;-82
2024/04/18 07:10:44;;;;;;;6.90;2.00;;;7.90;99.90;;;;;;5479660;26;20343;-82
2024/04/18 07:13:10;;;;;;;2.63;1.35;;;8.00;99.90;;;;;;5478916;26;20073;-83
2024/04/18 07:15:36;;;;;;;4.85;1.95;;;8.00;99.90;;;;;;5475555;26;20067;-80
2024/04/18 07:18:01;;;;;;;11.55;1.75;;;8.10;99.90;;;;;;5458599;26;20344;-83
2024/04/18 07:20:27;;;;;;;5.53;1.67;;;8.20;99.90;;;;;;5480015;26;20008;-83
2024/04/18 07:22:53;;;;;;;4.00;1.45;;;8.20;99.90;;;;;;5479529;26;19998;-82
2024/04/18 07:25:19;;;;;;;5.22;1.40;;;8.30;99.90;;;;;;5455941;26;20002;-83
2024/04/18 07:27:45;;;;;;;4.22;1.50;;;8.40;99.90;;;;;;5472063;26;20330;-82
2024/04/18 07:30:12;;;;;;;12.10;1.70;;;8.50;99.90;;;;;;5461596;26;20044;-82
2024/04/18 07:32:37;;;;;;;6.30;1.52;;;8.50;99.90;;;;;;5454705;26;20076;-82
2024/04/18 07:35:04;;;;;;;7.03;1.83;;;8.60;99.90;;;;;;5476792;26;20010;-82
2024/04/18 07:37:31;;;;;;;5.90;1.83;;;8.70;99.90;;;;;;5474623;26;20006;-82
2024/04/18 07:39:59;;;;;;;4.15;2.03;;;8.70;99.90;;;;;;5452113;26;20428;-82
2024/04/18 07:42:25;;;;;;;6.85;1.55;;;8.80;99.90;;;;;;5479173;26;20002;-82
2024/04/18 07:44:51;;;;;;;8.55;1.92;;;8.90;99.90;;;;;;5478494;26;20005;-80
2024/04/18 07:47:16;;;;;;;3.75;1.42;;;8.90;99.90;;;;;;5478749;26;20008;-80
2024/04/18 07:49:42;;;;;;;8.05;1.90;;;9.00;99.90;;;;;;5453668;26;20456;-80
2024/04/18 07:52:10;;;;;;;4.40;1.92;;;9.10;99.90;;;;;;5465191;26;20033;-79
2024/04/18 07:54:36;;;;;;;4.03;1.92;;;9.20;99.90;;;;;;5458804;26;20495;-80
2024/04/18 07:57:02;;;;;;;6.15;2.00;;;9.20;99.90;;;;;;5468580;26;20014;-79
2024/04/18 07:59:28;;;;;;;5.20;2.00;;;9.30;99.90;;;;;;5460386;26;20018;-81
2024/04/18 08:01:53;;;;;;;8.98;2.22;;;9.40;99.90;;;;;;5478130;26;20012;-81
2024/04/18 08:04:19;;;;;;;4.40;1.73;;;9.50;99.90;;;;;;5478159;26;20017;-80
2024/04/18 08:06:44;;;;;;;4.95;2.03;;;9.60;99.90;;;;;;5479795;26;20511;-80
2024/04/18 08:09:10;;;;;;;4.10;1.73;;;9.60;99.90;;;;;;5478780;26;20456;-79
2024/04/18 08:11:35;;;;;;;4.05;1.70;;;9.70;99.90;;;;;;5479772;26;19999;-79
2024/04/18 08:14:01;;;;;;;4.97;1.20;;;9.80;99.90;;;;;;5452489;26;20002;-80
2024/04/18 08:16:27;;;;;;;5.38;1.65;;;10.00;99.90;;;;;;5461207;26;20472;-79
2024/04/18 08:18:52;;;;;;;5.55;1.70;;;10.00;99.90;;;;;;5458092;26;19999;-80
2024/04/18 08:21:18;;;;;;;3.63;1.42;;;10.10;99.90;;;;;;5478632;26;20352;-80
2024/04/18 08:23:51;;;;;;;3.63;1.40;;;10.20;99.90;;;;;;5475990;26;20002;-80
2024/04/18 08:26:17;;;;;;;4.10;1.45;;;10.20;99.90;;;;;;5452210;26;20002;-80
2024/04/18 08:28:42;;;;;;;6.25;1.77;;;10.30;99.90;;;;;;5462730;26;20393;-80
2024/04/18 08:31:08;;;;;;;4.85;1.17;;;10.30;99.90;;;;;;5479246;26;20012;-80
2024/04/18 08:33:33;;;;;;;6.28;1.20;;;10.30;99.90;;;;;;5476122;26;20005;-80
2024/04/18 08:35:59;;;;;;;4.60;1.23;;;10.40;99.90;;;;;;5478287;26;20363;-80
2024/04/18 08:38:25;;;;;;;4.13;1.20;;;10.40;99.90;;;;;;5441237;26;20010;-80
2024/04/18 08:40:51;;;;;;;3.08;1.10;;;10.50;99.90;;;;;;5467953;26;19998;-79
2024/04/18 08:43:16;;;;;;;1.95;1.00;;;10.60;99.90;;;;;;5458566;26;20009;-80
2024/04/18 08:45:44;;;;;;;3.03;1.13;;;10.70;99.90;;;;;;5480748;26;19990;-79
2024/04/18 08:48:10;;;;;;;3.55;0.90;;;10.70;99.90;;;;;;5474366;26;20003;-80
2024/04/18 08:50:40;;;;;;;5.05;1.38;;;10.90;99.90;;;;;;5463717;26;20009;-80
2024/04/18 08:53:06;;;;;;;4.70;1.20;;;11.00;99.90;;;;;;5458964;26;20409;-80
2024/04/18 08:55:35;;;;;;;1.98;1.20;;;11.10;99.90;;;;;;5470537;26;19995;-80
2024/04/18 08:58:11;;;;;;;3.83;1.30;;;11.20;99.90;;;;;;5466569;26;20403;-80
2024/04/18 09:00:43;;;;;;;3.00;1.20;;;11.20;99.90;;;;;;5454432;26;20345;-79
2024/04/18 09:03:10;;;;;;;4.70;1.25;;;11.20;99.90;;;;;;5461098;26;20084;-80
2024/04/18 09:05:37;;;;;;;2.55;1.02;;;11.20;99.90;;;;;;5477670;26;20483;-79
2024/04/18 09:08:04;;;;;;;3.22;1.15;;;11.30;99.90;;;;;;5463804;26;20015;-80
2024/04/18 09:10:30;;;;;;;3.70;1.42;;;11.30;99.90;;;;;;5471076;26;20052;-80
2024/04/18 09:12:56;;;;;;;1.98;1.10;;;11.40;99.90;;;;;;5443703;26;20010;-79
2024/04/18 09:15:26;;;;;;;2.65;0.73;;;11.50;99.90;;;;;;5471065;26;20006;-79
2024/04/18 09:18:08;;;;;;;4.53;1.00;;;11.60;99.90;;;;;;5468324;26;20489;-79
2024/04/18 09:20:35;;;;;;;3.58;0.65;;;11.60;99.90;;;;;;5470736;26;20012;-80
2024/04/18 09:23:01;;;;;;;2.63;0.63;;;11.60;99.90;;;;;;5458614;26;20014;-79
2024/04/18 09:25:27;;;;;;;3.38;0.80;;;11.70;99.90;;;;;;5481238;26;20009;-79
2024/04/18 09:27:52;;;;;;;2.00;0.80;;;11.80;99.90;;;;;;5481275;26;20332;-80
2024/04/18 09:30:18;;;;;;;3.55;0.90;;;11.90;99.90;;;;;;5481500;26;20017;-80
2024/04/18 09:32:44;;;;;;;4.18;1.10;;;12.00;99.90;;;;;;5476084;26;20484;-80
2024/04/18 09:35:11;;;;;;;3.33;1.00;;;12.00;99.90;;;;;;5454415;26;20006;-80
2024/04/18 09:37:40;;;;;;;4.00;0.90;;;12.10;99.90;;;;;;5460240;26;20519;-81
2024/04/18 09:40:11;;;;;;;1.73;0.73;;;12.20;99.90;;;;;;5470965;26;20028;-79
2024/04/18 09:43:21;;;;;;;1.98;0.70;;;12.30;99.90;;;;;;5481315;26;20002;-83
2024/04/18 09:46:02;;;;;;;4.40;0.70;;;12.40;99.90;;;;;;5429616;26;20009;-81
2024/04/18 09:48:29;;;;;;;1.35;0.60;;;12.50;99.90;;;;;;5419186;26;20010;-79
2024/04/18 09:50:55;;;;;;;2.00;0.63;;;12.60;99.90;;;;;;5459247;26;20019;-79
2024/04/18 09:53:22;;;;;;;4.68;1.00;;;12.70;99.90;;;;;;5462793;26;19999;-80
2024/04/18 09:55:49;;;;;;;3.60;1.00;;;12.80;99.90;;;;;;5480060;26;20005;-81
2024/04/18 09:58:18;;;;;;;7.00;1.60;;;12.90;99.90;;;;;;5481047;26;19994;-83
2024/04/18 10:00:44;;;;;;;3.53;1.20;;;12.90;99.90;;;;;;5480072;26;19998;-81
2024/04/18 10:03:11;;;;;;;4.55;1.25;;;12.80;99.90;;;;;;5470350;26;19994;-80
2024/04/18 10:05:39;;;;;;;2.75;1.05;;;12.80;99.90;;;;;;5477544;26;19998;-80
2024/04/18 10:08:07;;;;;;;5.20;1.40;;;12.70;99.90;;;;;;5481328;26;20342;-81
2024/04/18 10:10:34;;;;;;;13.50;1.70;;;12.60;99.90;;;;;;5480765;26;20515;-80
2024/04/18 10:13:01;;;;;;;2.88;0.90;;;12.60;99.90;;;;;;5481629;26;20008;-81
2024/04/18 10:15:26;;;;;;;3.10;0.90;;;12.50;99.90;;;;;;5480560;26;20479;-80
2024/04/18 10:17:52;;;;;;;3.63;1.10;;;12.40;99.90;;;;;;5481834;26;19993;-82
2024/04/18 10:20:18;;;;;;;5.15;1.05;;;12.40;99.90;;;;;;5480926;26;20001;-81
2024/04/18 10:22:43;;;;;;;22.00;2.15;;;12.30;99.90;;;;;;5481355;26;20459;-82
2024/04/18 10:25:22;;;;;;;3.40;1.02;;;12.30;99.90;;;;;;5480238;26;20013;-79
2024/04/18 10:27:48;;;;;;;2.60;0.90;;;12.30;99.90;;;;;;5478715;26;20392;-80
2024/04/18 10:30:17;;;;;;;0.93;0.70;;;12.30;99.90;;;;;;5472705;26;19994;-80
2024/04/18 10:32:44;;;;;;;1.63;0.70;;;12.40;99.90;;;;;;5476175;26;20002;-80
2024/04/18 10:35:10;;;;;;;3.05;1.08;;;12.50;99.90;;;;;;5461400;26;19998;-80
2024/04/18 10:37:36;;;;;;;1.85;0.80;;;12.50;99.90;;;;;;5453754;26;20093;-81
2024/04/18 10:40:03;;;;;;;2.33;0.70;;;12.60;99.90;;;;;;5457597;26;20006;-81
2024/04/18 10:42:35;;;;;;;1.73;0.80;;;12.70;99.90;;;;;;5461543;26;20455;-81
2024/04/18 10:45:01;;;;;;;3.10;0.75;;;12.80;99.90;;;;;;5469020;26;20010;-80
2024/04/18 10:47:30;;;;;;;3.30;0.80;;;12.80;99.90;;;;;;5457110;26;20540;-80
2024/04/18 10:49:56;;;;;;;2.65;0.93;;;12.80;99.90;;;;;;5477395;26;20001;-81
2024/04/18 10:52:21;;;;;;;2.03;0.80;;;12.80;99.90;;;;;;5481181;26;20009;-81
2024/04/18 10:54:47;;;;;;;2.22;0.50;;;12.70;99.90;;;;;;5478186;26;20514;-81
2024/04/18 10:57:13;;;;;;;3.05;0.95;;;12.70;99.90;;;;;;5461912;26;20002;-81
2024/04/18 10:59:43;;;;;;;3.05;0.63;;;12.60;99.90;;;;;;5478507;26;20350;-80
2024/04/18 11:02:10;;;;;;;2.50;0.65;;;12.50;99.90;;;;;;5480751;26;20009;-80
2024/04/18 11:04:36;;;;;;;1.75;0.63;;;12.50;99.90;;;;;;5468103;26;19998;-80
2024/04/18 11:07:02;;;;;;;1.50;0.90;;;12.70;99.90;;;;;;5480128;26;20016;-80
2024/04/18 11:09:28;;;;;;;3.15;0.50;;;12.80;99.90;;;;;;5472542;26;19998;-80
2024/04/18 11:11:54;;;;;;;1.27;0.50;;;12.90;99.90;;;;;;5466300;26;20059;-80
2024/04/18 11:14:25;;;;;;;1.00;0.60;;;13.00;99.90;;;;;;5464401;26;20029;-80
2024/04/18 11:16:57;;;;;;;;;;;13.20;99.90;;;;;;5481540;26;20022;-81
2024/04/18 11:19:23;;;;;;;1.77;0.50;;;13.40;99.90;;;;;;5454929;26;20377;-80
2024/04/18 11:21:49;;;;;;;1.90;0.63;;;13.50;99.90;;;;;;5475262;26;20012;-80
2024/04/18 11:24:16;;;;;;;2.90;0.70;;;13.70;99.90;;;;;;5472589;26;20417;-80
2024/04/18 11:26:42;;;;;;;2.50;0.93;;;13.90;99.90;;;;;;5457542;26;19998;-79
2024/04/18 11:29:07;;;;;;;2.40;0.68;;;14.00;99.90;;;;;;5469630;26;20084;-79
2024/04/18 11:31:33;;;;;;;0.50;0.40;;;14.20;99.90;;;;;;5452137;26;20010;-79
2024/04/18 11:33:59;;;;;;;1.48;0.52;;;14.30;99.90;;;;;;5480308;26;20005;-80
2024/04/18 11:36:25;;;;;;;3.38;0.68;;;14.50;99.90;;;;;;5452987;26;19998;-80
2024/04/18 11:38:50;;;;;;;3.92;0.88;;;14.60;99.90;;;;;;5455814;26;19991;-80
2024/04/18 11:41:19;;;;;;;1.92;0.77;;;14.70;99.90;;;;;;5468108;26;20096;-80
2024/04/18 11:43:45;;;;;;;1.55;0.57;;;14.80;99.90;;;;;;5468316;26;20002;-80
2024/04/18 11:46:11;;;;;;;1.73;0.77;;;14.80;99.90;;;;;;5454277;26;20493;-80
2024/04/18 11:48:39;;;;;;;3.88;0.77;;;14.80;99.90;;;;;;5480653;26;20359;-80
2024/04/18 11:51:05;;;;;;;3.60;0.65;;;14.70;99.90;;;;;;5459202;26;20002;-80
2024/04/18 11:53:30;;;;;;;2.90;0.68;;;14.60;99.90;;;;;;5470059;26;19998;-80
2024/04/18 11:55:57;;;;;;;2.67;0.77;;;14.50;99.90;;;;;;5475781;26;19998;-80
2024/04/18 11:58:22;;;;;;;4.30;1.48;;;14.40;99.90;;;;;;5451098;26;20344;-80
2024/04/18 12:00:48;;;;;;;2.08;1.00;;;14.40;99.90;;;;;;5475674;26;20034;-80
2024/04/18 12:03:13;;;;;;;4.55;0.80;;;14.30;99.90;;;;;;5454482;26;20011;-79
2024/04/18 12:05:39;;;;;;;4.28;1.00;;;14.20;99.90;;;;;;5465702;26;20011;-80
2024/04/18 12:08:05;;;;;;;3.03;1.00;;;14.20;99.90;;;;;;5462438;26;20071;-80
2024/04/18 12:10:31;;;;;;;2.50;0.80;;;14.10;99.90;;;;;;5455165;26;20009;-80
2024/04/18 12:12:57;;;;;;;4.03;0.65;;;14.10;99.90;;;;;;5483614;26;20013;-80
2024/04/18 12:15:23;;;;;;;1.95;0.77;;;14.20;99.90;;;;;;5456785;26;20426;-80
2024/04/18 12:17:48;;;;;;;2.47;0.50;;;14.40;99.90;;;;;;5472199;26;20013;-80
2024/04/18 12:20:15;;;;;;;3.35;0.57;;;14.50;99.90;;;;;;5468504;26;20017;-80
2024/04/18 12:22:40;;;;;;;3.00;0.63;;;14.70;99.90;;;;;;5457470;26;20355;-81
2024/04/18 12:25:06;;;;;;;2.28;0.60;;;14.90;99.90;;;;;;5483034;26;20013;-80
2024/04/18 12:27:32;;;;;;;0.98;0.60;;;15.10;99.90;;;;;;5458604;26;20075;-80
2024/04/18 12:29:57;;;;;;;2.97;0.73;;;15.20;99.90;;;;;;5467383;26;20003;-80
2024/04/18 12:32:26;;;;;;;1.98;0.55;;;15.20;99.90;;;;;;5472986;26;20014;-80
2024/04/18 12:34:52;;;;;;;2.47;0.75;;;15.10;99.90;;;;;;5457669;26;20021;-80
2024/04/18 12:37:17;;;;;;;3.33;0.60;;;15.10;99.90;;;;;;5458596;26;20550;-80
2024/04/18 12:39:47;;;;;;;3.58;0.90;;;15.10;99.90;;;;;;5472601;26;20043;-81
2024/04/18 12:42:14;;;;;;;1.67;0.60;;;15.10;99.90;;;;;;5467790;26;20375;-81
2024/04/18 12:44:39;;;;;;;1.90;0.60;;;15.30;99.90;;;;;;5476258;26;20224;-82
2024/04/18 12:47:05;;;;;;;2.65;0.98;;;15.40;99.90;;;;;;5463235;26;20777;-80
2024/04/18 12:49:31;;;;;;;2.53;0.60;;;15.40;99.90;;;;;;5456835;26;20014;-79
2024/04/18 12:51:57;;;;;;;3.60;0.82;;;15.50;99.90;;;;;;5457328;26;20013;-79